createdAt,value
2023-03-29T00:02:02.948Z,101622.41
2023-03-29T00:04:34.260Z,101670.41
2023-03-29T00:07:04.518Z,101633.53
2023-03-29T00:09:36.526Z,101663.56
2023-03-29T00:12:04.825Z,101665.50
2023-03-29T00:14:34.408Z,101677.56
2023-03-29T00:17:04.467Z,101682.22
2023-03-29T00:19:37.509Z,101685.03
2023-03-29T00:22:06.599Z,101683.19
2023-03-29T00:24:36.153Z,101679.19
2023-03-29T00:27:05.844Z,101676.81
2023-03-29T00:29:35.800Z,101670.34
2023-03-29T00:32:03.672Z,101680.38
2023-03-29T00:34:33.712Z,101663.97
2023-03-29T00:37:01.385Z,101663.25
2023-03-29T00:39:31.974Z,101673.78
2023-03-29T00:42:01.322Z,101668.88
2023-03-29T00:45:03.885Z,101669.72
2023-03-29T00:47:38.195Z,101630.16
2023-03-29T00:50:14.384Z,101676.38
2023-03-29T00:52:48.230Z,101680.16
2023-03-29T00:55:22.862Z,101681.63
2023-03-29T00:57:57.575Z,101680.19
2023-03-29T01:00:33.084Z,101682.19
2023-03-29T01:03:09.031Z,101680.47
2023-03-29T01:05:47.687Z,101642.44
2023-03-29T01:08:22.132Z,101682.84
2023-03-29T01:10:57.631Z,101689.47
2023-03-29T01:13:33.459Z,101658.16
2023-03-29T01:16:04.509Z,101680.44
2023-03-29T01:18:32.348Z,101683.34
2023-03-29T01:21:16.906Z,101679.72
2023-03-29T01:24:07.660Z,101685.66
2023-03-29T01:26:48.738Z,101651.38
2023-03-29T01:29:25.623Z,101676.50
2023-03-29T01:32:03.759Z,101663.94
2023-03-29T01:34:40.980Z,101663.56
2023-03-29T01:37:15.669Z,101671.41
2023-03-29T01:39:47.075Z,101677.25
2023-03-29T01:42:25.055Z,101671.31
2023-03-29T01:45:04.210Z,101645.47
2023-03-29T01:47:44.908Z,101683.78
2023-03-29T01:50:19.528Z,101691.97
2023-03-29T01:52:57.048Z,101603.41
2023-03-29T01:55:33.027Z,101676.81
2023-03-29T01:58:04.691Z,101644.41
2023-03-29T02:00:37.305Z,101683.63
2023-03-29T02:03:13.251Z,101677.78
2023-03-29T02:05:42.429Z,101681.06
2023-03-29T02:08:13.856Z,101674.84
2023-03-29T02:10:41.686Z,101586.06
2023-03-29T02:13:16.762Z,101668.16
2023-03-29T02:15:46.877Z,101667.41
2023-03-29T02:18:19.570Z,101666.63
2023-03-29T02:20:51.918Z,101658.38
2023-03-29T02:23:27.406Z,101653.75
2023-03-29T02:25:58.784Z,101644.00
2023-03-29T02:28:27.201Z,101644.00
2023-03-29T02:31:05.211Z,101642.06
2023-03-29T02:33:42.154Z,101643.13
2023-03-29T02:36:15.774Z,101642.28
2023-03-29T02:38:43.754Z,101606.59
2023-03-29T02:41:16.530Z,101640.00
2023-03-29T02:43:48.442Z,101638.16
2023-03-29T02:46:20.607Z,101639.59
2023-03-29T02:48:52.304Z,101633.88
2023-03-29T02:51:25.469Z,101627.03
2023-03-29T02:53:58.919Z,101569.41
2023-03-29T02:56:28.903Z,101628.66
2023-03-29T02:58:56.649Z,101638.47
2023-03-29T03:01:28.073Z,101631.06
2023-03-29T03:03:58.481Z,101633.75
2023-03-29T03:06:29.250Z,101617.75
2023-03-29T03:08:57.075Z,101631.44
2023-03-29T03:11:24.819Z,101631.28
2023-03-29T03:13:56.830Z,101631.41
2023-03-29T03:16:26.401Z,101630.13
2023-03-29T03:18:55.639Z,101626.41
2023-03-29T03:21:27.727Z,101621.66
2023-03-29T03:23:55.905Z,101624.88
2023-03-29T03:26:24.913Z,101622.19
2023-03-29T03:28:56.824Z,101622.56
2023-03-29T03:31:28.324Z,101625.13
2023-03-29T03:34:00.790Z,101626.25
2023-03-29T03:36:31.623Z,101623.22
2023-03-29T03:38:59.376Z,101625.69
2023-03-29T03:41:29.043Z,101631.34
2023-03-29T03:43:58.888Z,101636.81
2023-03-29T03:46:29.476Z,101639.84
2023-03-29T03:48:59.792Z,101631.94
2023-03-29T03:51:31.294Z,101631.34
2023-03-29T03:53:59.028Z,101629.13
2023-03-29T03:56:31.798Z,101624.53
2023-03-29T03:59:01.703Z,101630.84
2023-03-29T04:01:30.755Z,101609.56
2023-03-29T04:04:00.677Z,101626.78
2023-03-29T04:06:32.694Z,101632.53
2023-03-29T04:09:00.396Z,101637.03
2023-03-29T04:11:30.044Z,101631.84
2023-03-29T04:14:00.190Z,101608.59
2023-03-29T04:16:33.917Z,101629.41
2023-03-29T04:19:01.890Z,101630.34
2023-03-29T04:21:33.782Z,101631.59
2023-03-29T04:24:01.560Z,101628.72
2023-03-29T04:26:31.485Z,101558.75
2023-03-29T04:28:59.248Z,101624.13
2023-03-29T04:31:33.251Z,101621.47
2023-03-29T04:34:04.520Z,101626.63
2023-03-29T04:36:37.435Z,101622.16
2023-03-29T04:39:07.933Z,101615.19
2023-03-29T04:41:39.846Z,101613.47
2023-03-29T04:44:08.454Z,101618.84
2023-03-29T04:46:38.744Z,101619.59
2023-03-29T04:49:11.985Z,101624.06
2023-03-29T04:51:42.518Z,101621.66
2023-03-29T04:54:10.601Z,101619.28
2023-03-29T04:56:40.222Z,101623.09
2023-03-29T04:59:10.646Z,101624.09
2023-03-29T05:01:38.747Z,101616.97
2023-03-29T05:04:12.052Z,101609.56
2023-03-29T05:06:42.889Z,101618.72
2023-03-29T05:09:10.671Z,101604.78
2023-03-29T05:11:40.242Z,101562.97
2023-03-29T05:14:10.179Z,101609.59
2023-03-29T05:16:39.316Z,101599.06
2023-03-29T05:19:11.038Z,101594.06
2023-03-29T05:21:42.102Z,101600.97
2023-03-29T05:24:10.955Z,101541.66
2023-03-29T05:26:41.844Z,101598.09
2023-03-29T05:29:12.300Z,101589.34
2023-03-29T05:31:40.056Z,101589.88
2023-03-29T05:34:11.122Z,101582.91
2023-03-29T05:36:44.777Z,101576.72
2023-03-29T05:39:12.515Z,101583.41
2023-03-29T05:41:41.618Z,101527.16
2023-03-29T05:44:13.528Z,101567.94
2023-03-29T05:46:41.221Z,101522.47
2023-03-29T05:49:10.432Z,101581.75
2023-03-29T05:51:43.808Z,101566.38
2023-03-29T05:54:11.587Z,101595.72
2023-03-29T05:56:39.685Z,101538.25
2023-03-29T05:59:11.518Z,101596.00
2023-03-29T06:01:40.046Z,101600.53
2023-03-29T06:04:07.862Z,101598.59
2023-03-29T06:06:41.050Z,101604.41
2023-03-29T06:09:11.034Z,101598.44
2023-03-29T06:11:39.315Z,101573.25
2023-03-29T06:14:09.613Z,101600.81
2023-03-29T06:16:41.430Z,101603.81
2023-03-29T06:19:10.468Z,101594.38
2023-03-29T06:21:41.374Z,101590.31
2023-03-29T06:24:13.712Z,101550.22
2023-03-29T06:26:42.035Z,101587.31
2023-03-29T06:29:12.300Z,101541.31
2023-03-29T06:31:42.345Z,101572.50
2023-03-29T06:34:10.157Z,101583.69
2023-03-29T06:36:41.235Z,101574.59
2023-03-29T06:39:13.094Z,101572.22
2023-03-29T06:41:40.982Z,101572.13
2023-03-29T06:44:08.875Z,101570.81
2023-03-29T06:46:39.214Z,101565.72
2023-03-29T06:49:06.764Z,101574.00
2023-03-29T06:51:34.513Z,101573.72
2023-03-29T06:54:04.347Z,101574.00
2023-03-29T06:56:32.174Z,101564.69
2023-03-29T06:58:59.888Z,101569.38
2023-03-29T07:01:30.440Z,101562.03
2023-03-29T07:04:00.234Z,101562.56
2023-03-29T07:06:27.978Z,101555.91
2023-03-29T07:08:59.858Z,101535.94
2023-03-29T07:11:29.137Z,101551.06
2023-03-29T07:13:57.160Z,101551.47
2023-03-29T07:16:25.006Z,101549.41
2023-03-29T07:18:52.744Z,101549.13
2023-03-29T07:21:21.174Z,101523.63
2023-03-29T07:23:51.053Z,101547.31
2023-03-29T07:26:28.976Z,101550.13
2023-03-29T07:29:00.256Z,101548.84
2023-03-29T07:31:30.701Z,101542.19
2023-03-29T07:33:58.294Z,101539.31
2023-03-29T07:36:28.732Z,101511.25
2023-03-29T07:38:57.099Z,101543.78
2023-03-29T07:41:24.955Z,101540.50
2023-03-29T07:43:52.802Z,101509.88
2023-03-29T07:46:22.068Z,101532.88
2023-03-29T07:48:52.170Z,101534.44
2023-03-29T07:51:21.884Z,101488.28
2023-03-29T07:53:50.216Z,101533.28
2023-03-29T07:56:18.084Z,101527.31
2023-03-29T07:58:46.596Z,101500.00
2023-03-29T08:01:18.701Z,101538.59
2023-03-29T08:03:48.711Z,101539.59
2023-03-29T08:06:17.244Z,101536.00
2023-03-29T08:08:45.292Z,101533.59
2023-03-29T08:11:15.479Z,101533.50
2023-03-29T08:13:43.253Z,101532.69
2023-03-29T08:16:11.224Z,101534.22
2023-03-29T08:18:43.151Z,101537.59
2023-03-29T08:21:14.650Z,101536.75
2023-03-29T08:23:46.498Z,101524.16
2023-03-29T08:26:15.920Z,101534.38
2023-03-29T08:28:43.797Z,101538.59
2023-03-29T08:31:15.733Z,101523.34
2023-03-29T08:33:44.247Z,101483.97
2023-03-29T08:36:13.816Z,101531.72
2023-03-29T08:38:49.230Z,101533.38
2023-03-29T08:41:30.772Z,101530.91
2023-03-29T08:44:10.905Z,101489.16
2023-03-29T08:46:45.362Z,101530.09
2023-03-29T08:49:19.565Z,101527.69
2023-03-29T08:51:53.943Z,101534.44
2023-03-29T08:54:29.330Z,101522.38
2023-03-29T08:57:06.584Z,101532.63
2023-03-29T08:59:38.437Z,101522.47
2023-03-29T09:02:15.973Z,101519.03
2023-03-29T09:04:48.268Z,101524.97
2023-03-29T09:07:17.732Z,101523.16
2023-03-29T09:09:45.614Z,101524.13
2023-03-29T09:12:28.987Z,101513.97
2023-03-29T09:15:09.824Z,101518.38
2023-03-29T09:17:49.787Z,101512.41
2023-03-29T09:20:27.129Z,101497.91
2023-03-29T09:23:09.287Z,101503.91
2023-03-29T09:25:53.628Z,101443.41
2023-03-29T09:28:31.175Z,101494.56
2023-03-29T09:31:06.066Z,101496.94
2023-03-29T09:33:44.655Z,101490.19
2023-03-29T09:36:18.543Z,101496.25
2023-03-29T09:38:54.189Z,101503.94
2023-03-29T09:41:29.487Z,101500.44
2023-03-29T09:44:01.746Z,101497.94
2023-03-29T09:46:40.411Z,101498.75
2023-03-29T09:49:16.066Z,101492.50
2023-03-29T09:51:50.388Z,101499.66
2023-03-29T09:54:21.489Z,101493.66
2023-03-29T09:56:52.739Z,101495.41
2023-03-29T09:59:20.621Z,101495.38
2023-03-29T10:01:53.395Z,101497.06
2023-03-29T10:04:22.592Z,101490.28
2023-03-29T10:06:58.355Z,101486.84
2023-03-29T10:09:31.070Z,101416.19
2023-03-29T10:12:05.353Z,101469.81
2023-03-29T10:14:37.152Z,101486.91
2023-03-29T10:17:16.549Z,101474.13
2023-03-29T10:19:50.419Z,101484.34
2023-03-29T10:22:26.135Z,101478.31
2023-03-29T10:24:58.004Z,101431.50
2023-03-29T10:27:31.606Z,101481.78
2023-03-29T10:30:00.882Z,101481.75
2023-03-29T10:32:36.093Z,101479.22
2023-03-29T10:35:10.775Z,101461.34
2023-03-29T10:37:42.200Z,101457.09
2023-03-29T10:40:23.726Z,101432.41
2023-03-29T10:42:56.655Z,101468.13
2023-03-29T10:45:28.983Z,101466.38
2023-03-29T10:48:04.531Z,101459.66
2023-03-29T10:50:34.751Z,101449.44
2023-03-29T10:53:03.373Z,101469.03
2023-03-29T10:55:40.230Z,101472.44
2023-03-29T10:58:25.201Z,101479.84
2023-03-29T11:00:59.683Z,101469.75
2023-03-29T11:03:44.758Z,101470.69
2023-03-29T11:06:22.780Z,101469.00
2023-03-29T11:08:57.369Z,101468.13
2023-03-29T11:12:01.267Z,101464.78
2023-03-29T11:14:54.116Z,101420.50
2023-03-29T11:17:33.162Z,101458.81
2023-03-29T11:20:13.529Z,101469.03
2023-03-29T11:22:50.327Z,101457.09
2023-03-29T11:25:33.391Z,101468.13
2023-03-29T11:28:12.395Z,101469.78
2023-03-29T11:30:47.438Z,101467.25
2023-03-29T11:33:32.163Z,101474.00
2023-03-29T11:36:06.760Z,101463.88
2023-03-29T11:38:40.763Z,101474.03
2023-03-29T11:41:17.702Z,101460.53
2023-03-29T11:43:50.767Z,101464.72
2023-03-29T11:46:23.972Z,101455.38
2023-03-29T11:48:57.591Z,101411.13
2023-03-29T11:51:28.305Z,101471.56
2023-03-29T11:54:02.791Z,101474.91
2023-03-29T11:56:37.603Z,101467.31
2023-03-29T11:59:14.821Z,101462.22
2023-03-29T12:01:48.947Z,101419.47
2023-03-29T12:04:24.785Z,101483.38
2023-03-29T12:07:01.761Z,101488.28
2023-03-29T12:09:35.869Z,101485.75
2023-03-29T12:12:23.367Z,101476.00
2023-03-29T12:15:00.958Z,101476.13
2023-03-29T12:17:35.332Z,101476.28
2023-03-29T12:20:12.106Z,101472.03
2023-03-29T12:22:41.059Z,101471.44
2023-03-29T12:25:18.216Z,101470.34
2023-03-29T12:27:56.180Z,101437.03
2023-03-29T12:30:43.781Z,101444.97
2023-03-29T12:33:28.423Z,101475.66
2023-03-29T12:36:10.950Z,101479.84
2023-03-29T12:38:39.269Z,101483.22
2023-03-29T12:41:19.622Z,101481.34
2023-03-29T12:43:50.462Z,101473.91
2023-03-29T12:46:24.401Z,101403.22
2023-03-29T12:48:57.135Z,101474.56
2023-03-29T12:51:32.997Z,101478.97
2023-03-29T12:54:08.428Z,101426.59
2023-03-29T12:56:40.694Z,101462.34
2023-03-29T12:59:25.670Z,101465.66
2023-03-29T13:02:03.104Z,101456.19
2023-03-29T13:04:52.298Z,101459.00
2023-03-29T13:07:33.727Z,101455.56
2023-03-29T13:10:08.938Z,101456.50
2023-03-29T13:12:40.620Z,101463.50
2023-03-29T13:15:23.026Z,101455.59
2023-03-29T13:18:00.345Z,101457.53
2023-03-29T13:20:44.719Z,101457.59
2023-03-29T13:23:28.261Z,101455.88
2023-03-29T13:26:11.467Z,101453.09
2023-03-29T13:29:03.490Z,101458.34
2023-03-29T13:31:39.069Z,101452.97
2023-03-29T13:34:23.423Z,101461.81
2023-03-29T13:37:04.267Z,101456.66
2023-03-29T13:39:34.858Z,101447.00
2023-03-29T13:42:19.836Z,101391.63
2023-03-29T13:44:51.254Z,101443.06
2023-03-29T13:47:48.922Z,101436.41
2023-03-29T13:50:37.417Z,101401.34
2023-03-29T13:53:13.746Z,101420.56
2023-03-29T13:55:48.546Z,101427.25
2023-03-29T13:58:27.386Z,101411.69
2023-03-29T14:01:01.838Z,101425.75
2023-03-29T14:03:34.338Z,101424.09
2023-03-29T14:06:05.411Z,101394.19
2023-03-29T14:08:40.055Z,101417.56
2023-03-29T14:11:15.581Z,101380.56
2023-03-29T14:13:44.106Z,101420.38
2023-03-29T14:16:13.700Z,101350.88
2023-03-29T14:18:44.687Z,101401.06
2023-03-29T14:21:15.818Z,101407.09
2023-03-29T14:23:46.225Z,101409.41
2023-03-29T14:26:17.425Z,101403.66
2023-03-29T14:28:48.908Z,101407.66
2023-03-29T14:31:25.247Z,101399.94
2023-03-29T14:33:54.439Z,101401.59
2023-03-29T14:36:25.071Z,101343.25
2023-03-29T14:38:55.066Z,101404.88
2023-03-29T14:41:25.905Z,101397.81
2023-03-29T14:43:55.923Z,101399.13
2023-03-29T14:46:24.330Z,101401.19
2023-03-29T14:48:52.581Z,101398.47
2023-03-29T14:51:21.189Z,101396.91
2023-03-29T14:53:50.823Z,101397.69
2023-03-29T14:56:24.143Z,101396.84
2023-03-29T14:58:55.215Z,101345.19
2023-03-29T15:01:27.033Z,101390.31
2023-03-29T15:03:56.740Z,101394.50
2023-03-29T15:06:26.651Z,101388.38
2023-03-29T15:09:05.958Z,101387.41
2023-03-29T15:11:35.253Z,101382.63
2023-03-29T15:14:08.966Z,101378.59
2023-03-29T15:16:39.731Z,101373.63
2023-03-29T15:19:07.873Z,101381.06
2023-03-29T15:21:38.378Z,101374.88
2023-03-29T15:24:07.641Z,101375.34
2023-03-29T15:26:39.200Z,101365.25
2023-03-29T15:29:14.785Z,101366.84
2023-03-29T15:31:56.158Z,101368.44
2023-03-29T15:34:29.638Z,101376.84
2023-03-29T15:37:00.167Z,101369.44
2023-03-29T15:39:32.569Z,101362.84
2023-03-29T15:42:02.522Z,101326.28
2023-03-29T15:44:34.381Z,101367.31
2023-03-29T15:47:02.209Z,101368.09
2023-03-29T15:49:32.053Z,101361.59
2023-03-29T15:52:01.707Z,101367.47
2023-03-29T15:54:31.663Z,101368.03
2023-03-29T15:57:06.703Z,101368.16
2023-03-29T15:59:36.392Z,101339.19
2023-03-29T16:02:05.556Z,101317.63
2023-03-29T16:04:35.228Z,101357.72
2023-03-29T16:07:02.990Z,101356.19
2023-03-29T16:09:32.418Z,101315.91
2023-03-29T16:12:00.732Z,101360.97
2023-03-29T16:14:31.359Z,101356.66
2023-03-29T16:17:04.778Z,101351.53
2023-03-29T16:19:33.883Z,101298.59
2023-03-29T16:22:09.041Z,101275.63
2023-03-29T16:24:38.164Z,101347.66
2023-03-29T16:27:08.089Z,101348.34
2023-03-29T16:29:37.745Z,101342.97
2023-03-29T16:32:07.067Z,101344.63
2023-03-29T16:34:35.906Z,101304.50
2023-03-29T16:37:05.735Z,101341.91
2023-03-29T16:39:33.477Z,101317.84
2023-03-29T16:42:04.978Z,101341.78
2023-03-29T16:44:32.880Z,101343.44
2023-03-29T16:47:00.849Z,101333.59
2023-03-29T16:49:28.751Z,101330.09
2023-03-29T16:51:57.237Z,101329.28
2023-03-29T16:54:25.852Z,101314.81
2023-03-29T16:56:53.914Z,101327.47
2023-03-29T16:59:23.323Z,101330.09
2023-03-29T17:01:51.178Z,101330.13
2023-03-29T17:04:21.211Z,101324.19
2023-03-29T17:06:49.176Z,101338.22
2023-03-29T17:09:17.622Z,101334.84
2023-03-29T17:11:45.775Z,101339.97
2023-03-29T17:14:15.514Z,101324.88
2023-03-29T17:16:44.928Z,101336.63
2023-03-29T17:19:12.844Z,101334.94
2023-03-29T17:21:42.981Z,101275.06
2023-03-29T17:24:11.029Z,101227.25
2023-03-29T17:26:42.166Z,101335.66
2023-03-29T17:29:11.085Z,101334.66
2023-03-29T17:31:46.825Z,101338.97
2023-03-29T17:34:16.607Z,101343.06
2023-03-29T17:36:45.752Z,101265.50
2023-03-29T17:39:15.307Z,101285.84
2023-03-29T17:41:43.846Z,101344.50
2023-03-29T17:44:12.218Z,101340.44
2023-03-29T17:46:40.571Z,101342.09
2023-03-29T17:49:12.472Z,101341.22
2023-03-29T17:51:41.699Z,101342.91
2023-03-29T17:54:09.496Z,101345.53
2023-03-29T17:56:39.249Z,101334.25
2023-03-29T17:59:07.036Z,101346.19
2023-03-29T18:01:36.391Z,101334.00
2023-03-29T18:04:11.248Z,101350.19
2023-03-29T18:06:39.120Z,101318.56
2023-03-29T18:09:10.129Z,101350.88
2023-03-29T18:11:40.080Z,101351.88
2023-03-29T18:14:07.815Z,101310.50
2023-03-29T18:16:36.166Z,101353.31
2023-03-29T18:19:08.252Z,101348.31
2023-03-29T18:21:36.892Z,101324.00
2023-03-29T18:24:05.006Z,101348.03
2023-03-29T18:26:38.152Z,101354.59
2023-03-29T18:29:07.908Z,101352.03
2023-03-29T18:31:37.224Z,101324.59
2023-03-29T18:34:06.934Z,101355.28
2023-03-29T18:36:34.671Z,101363.50
2023-03-29T18:39:05.829Z,101353.78
2023-03-29T18:41:35.903Z,101334.31
2023-03-29T18:44:04.069Z,101360.97
2023-03-29T18:46:34.255Z,101355.16
2023-03-29T18:49:03.839Z,101351.41
2023-03-29T18:51:32.907Z,101351.53
2023-03-29T18:54:04.261Z,101329.53
2023-03-29T18:56:32.234Z,101312.00
2023-03-29T18:59:05.159Z,101350.03
2023-03-29T19:01:37.339Z,101354.09
2023-03-29T19:04:05.337Z,101351.31
2023-03-29T19:06:33.296Z,101285.84
2023-03-29T19:09:05.297Z,101295.19
2023-03-29T19:11:33.358Z,101297.16
2023-03-29T19:14:02.619Z,101355.09
2023-03-29T19:16:36.813Z,101355.69
2023-03-29T19:19:06.897Z,101353.94
2023-03-29T19:21:34.748Z,101313.28
2023-03-29T19:24:06.932Z,101357.06
2023-03-29T19:26:37.290Z,101327.56
2023-03-29T19:29:06.627Z,101360.81
2023-03-29T19:31:37.898Z,101364.28
2023-03-29T19:34:09.558Z,101348.94
2023-03-29T19:36:37.945Z,101360.13
2023-03-29T19:39:06.516Z,101271.25
2023-03-29T19:41:34.330Z,101352.97
2023-03-29T19:44:02.045Z,101354.59
2023-03-29T19:46:33.074Z,101355.81
2023-03-29T19:49:05.486Z,101361.00
2023-03-29T19:51:33.544Z,101343.75
2023-03-29T19:54:03.166Z,101357.69
2023-03-29T19:56:33.160Z,101354.53
2023-03-29T19:59:00.865Z,101359.28
2023-03-29T20:01:32.402Z,101357.69
2023-03-29T20:04:03.891Z,101358.97
2023-03-29T20:06:31.599Z,101356.41
2023-03-29T20:08:59.428Z,101334.66
2023-03-29T20:11:28.926Z,101356.09
2023-03-29T20:13:56.638Z,101352.88
2023-03-29T20:16:26.137Z,101351.75
2023-03-29T20:18:56.263Z,101276.59
2023-03-29T20:21:25.354Z,101282.88
2023-03-29T20:23:53.203Z,101356.41
2023-03-29T20:26:21.279Z,101348.38
2023-03-29T20:28:49.770Z,101356.81
2023-03-29T20:31:17.689Z,101351.84
2023-03-29T20:33:47.661Z,101350.09
2023-03-29T20:36:18.611Z,101327.53
2023-03-29T20:38:47.976Z,101362.41
2023-03-29T20:41:15.799Z,101362.31
2023-03-29T20:43:43.786Z,101359.22
2023-03-29T20:46:20.085Z,101356.25
2023-03-29T20:48:53.801Z,101299.19
2023-03-29T20:51:21.697Z,101352.31
2023-03-29T20:53:54.084Z,101357.28
2023-03-29T20:56:22.234Z,101361.94
2023-03-29T20:58:57.873Z,101354.78
2023-03-29T21:01:29.680Z,101350.66
2023-03-29T21:03:57.545Z,101291.63
2023-03-29T21:06:27.991Z,101351.66
2023-03-29T21:09:04.793Z,101345.75
2023-03-29T21:11:35.293Z,101279.19
2023-03-29T21:14:05.528Z,101343.44
2023-03-29T21:16:33.147Z,101338.44
2023-03-29T21:19:02.758Z,101343.69
2023-03-29T21:21:33.670Z,101342.88
2023-03-29T21:24:03.145Z,101335.75
2023-03-29T21:26:35.450Z,101337.75
2023-03-29T21:29:05.594Z,101343.19
2023-03-29T21:31:33.424Z,101295.25
2023-03-29T21:34:01.455Z,101345.22
2023-03-29T21:36:29.312Z,101343.75
2023-03-29T21:38:57.275Z,101341.84
2023-03-29T21:41:29.053Z,101322.59
2023-03-29T21:43:59.020Z,101352.59
2023-03-29T21:46:26.830Z,101356.06
2023-03-29T21:48:56.471Z,101344.31
2023-03-29T21:51:27.036Z,101349.81
2023-03-29T21:53:54.757Z,101281.41
2023-03-29T21:56:24.997Z,101344.59
2023-03-29T21:58:55.796Z,101342.47
2023-03-29T22:01:23.581Z,101346.03
2023-03-29T22:03:53.205Z,101345.50
2023-03-29T22:06:25.999Z,101339.13
2023-03-29T22:08:55.928Z,101334.47
2023-03-29T22:11:25.879Z,101335.53
2023-03-29T22:13:59.081Z,101326.03
2023-03-29T22:16:31.264Z,101326.78
2023-03-29T22:18:59.471Z,101247.69
2023-03-29T22:21:33.021Z,101319.44
2023-03-29T22:24:02.904Z,101301.59
2023-03-29T22:26:32.180Z,101267.88
2023-03-29T22:29:03.498Z,101312.72
2023-03-29T22:31:33.637Z,101303.94
2023-03-29T22:34:02.813Z,101306.94
2023-03-29T22:36:34.260Z,101236.31
2023-03-29T22:39:04.721Z,101313.94
2023-03-29T22:41:32.634Z,101317.84
2023-03-29T22:44:03.857Z,101318.31
2023-03-29T22:46:34.194Z,101321.31
2023-03-29T22:49:02.054Z,101306.09
2023-03-29T22:51:31.727Z,101327.69
2023-03-29T22:54:01.654Z,101334.66
2023-03-29T22:56:29.368Z,101324.91
2023-03-29T22:59:01.561Z,101299.31
2023-03-29T23:01:34.994Z,101329.97
2023-03-29T23:04:06.409Z,101320.41
2023-03-29T23:06:34.136Z,101314.44
2023-03-29T23:09:04.795Z,101328.16
2023-03-29T23:11:32.796Z,101318.50
2023-03-29T23:14:03.957Z,101331.78
2023-03-29T23:16:40.931Z,101341.47
2023-03-29T23:19:08.649Z,101341.00
2023-03-29T23:21:37.107Z,101333.97
2023-03-29T23:24:09.456Z,101335.53
2023-03-29T23:26:37.638Z,101269.19
2023-03-29T23:29:05.383Z,101329.06
2023-03-29T23:31:43.960Z,101330.88
2023-03-29T23:34:13.477Z,101333.41
2023-03-29T23:36:43.358Z,101335.53
2023-03-29T23:39:13.060Z,101330.09
2023-03-29T23:41:41.104Z,101338.38
2023-03-29T23:44:11.038Z,101334.50
2023-03-29T23:46:44.250Z,101336.44
2023-03-29T23:49:12.041Z,101330.31
2023-03-29T23:51:39.957Z,101324.84
2023-03-29T23:54:11.743Z,101324.06
2023-03-29T23:56:39.533Z,101325.66
2023-03-29T23:59:07.224Z,101318.03
